• Join FlightAware (Why Join?)
  • Login
  • US Flag 
03:42AM EST


 

Airport Tracker/Info


-or-


 

Live Flight TrackerFlight Track Log ✈ ZK-PBG ✈ 05-Apr-2013 ✈ YSSY / SYD - NZCH / CHC

Flight Track Log - Related Links

Times and Time Zones

All times are in EDT time to prevent confusion due to time zone crossing. See the ZK-PBG flight status page for this flight to view local times or setup timezone preferences in your user account.

Time Position Orientation Groundspeed Altitude Reporting Facility
EDT Latitude Longitude Course Direction KTS MPH feet Rate Location/Type
04:28AM -33.9858 151.1834 186° South 166 191 1,600  Level Aus ATC (RADAR)
04:28AM -33.9981 151.1818 186° South 174 200 2,200 2,280 Climbing Aus ATC (RADAR)
04:29AM -34.0324 151.1776 186° South 213 245 3,500 1,680 Climbing Aus ATC (RADAR)
04:29AM -34.0650 151.1740 185° South 263 303 4,100 2,100 Climbing FlightAware
04:30AM -34.0965 151.1706 185° South 285 328 5,300 2,160 Climbing Aus ATC (RADAR)
04:30AM -34.0980 151.1700 186° South 295 339 5,000 2,820 Descending FlightAware
04:30AM -34.1380 151.1840 164° South 307 353 7,000 4,020 Climbing FlightAware
04:30AM -34.1480 151.1980 131° Southeast 310 357 7,700 3,780 Climbing FlightAware
04:31AM -34.1590 151.2280 114° Southeast 310 357 8,900 3,600 Climbing FlightAware
04:31AM -34.1630 151.2460 105° East 314 361 9,500 4,500 Climbing FlightAware
04:31AM -34.1760 151.2998 105° East 320 368 11,700 3,420 Climbing Aus ATC (RADAR)
04:32AM -34.1820 151.3250 105° East 332 382 12,100 2,340 Climbing FlightAware
04:32AM -34.1960 151.3890 105° East 346 398 13,800 3,660 Climbing FlightAware
04:33AM -34.2086 151.4421 105° East 350 403 15,700 2,880 Climbing Aus ATC (RADAR)
04:33AM -34.2180 151.4850 105° East 369 425 16,200 2,760 Climbing FlightAware
04:33AM -34.2310 151.5415 105° East 370 426 18,000 3,000 Climbing Aus ATC (RADAR)
04:34AM -34.2370 151.5660 105° East 378 435 18,200 3,060 Climbing FlightAware
04:34AM -34.2473 151.6128 105° East 377 434 19,800 2,700 Climbing Aus ATC (RADAR)
04:34AM -34.2560 151.6480 105° East 387 445 20,000 2,340 Climbing FlightAware
04:35AM -34.2729 151.7243 105° East 388 447 21,900 2,400 Climbing Aus ATC (RADAR)
04:35AM -34.2770 151.7410 105° East 398 458 21,800 2,400 Descending FlightAware
04:35AM -34.2903 151.7998 105° East 395 455 23,300 2,220 Climbing Aus ATC (RADAR)
04:36AM -34.2980 151.8310 105° East 411 473 23,300 1,980 Level FlightAware
04:36AM -34.3167 151.9170 105° East 416 479 25,000 1,920 Climbing Aus ATC (RADAR)
04:36AM -34.3190 151.9230 105° East 425 489 24,600 1,200 Descending FlightAware
04:37AM -34.3660 152.0390 116° Southeast 433 498 26,300 1,800 Climbing FlightAware
04:38AM -34.4070 152.1240 120° Southeast 445 512 27,500 2,340 Climbing FlightAware
04:38AM -34.4314 152.1751 120° Southeast 437 503 28,600 1,560 Climbing Aus ATC (RADAR)
04:38AM -34.4350 152.1830 120° Southeast 449 517 28,300 1,860 Descending FlightAware
04:39AM -34.4684 152.2513 120° Southeast 441 507 29,700 1,800 Climbing Aus ATC (RADAR)
04:40AM -34.5080 152.3330 120° Southeast 459 528 30,300 1,140 Climbing FlightAware
04:40AM -34.5520 152.4240 120° Southeast 464 534 31,300 1,620 Climbing FlightAware
04:41AM -34.5970 152.5170 120° Southeast 462 532 32,600 2,160 Climbing FlightAware
04:41AM -34.6350 152.5966 120° Southeast 450 518 34,000 1,680 Climbing Aus ATC (RADAR)
04:42AM -34.6480 152.6250 120° Southeast 461 531 33,900 1,500 Descending FlightAware
04:42AM -34.6723 152.6747 120° Southeast 450 518 34,900 1,320 Climbing Aus ATC (RADAR)
04:42AM -34.6880 152.7060 120° Southeast 461 531 34,800 1,380 Descending FlightAware
04:43AM -34.7312 152.7975 120° Southeast 448 516 36,200 1,500 Climbing Aus ATC (RADAR)
04:43AM -34.7250 152.7860 120° Southeast 461 531 35,700 420 Descending FlightAware
04:44AM -34.7700 152.8790 121° Southeast 464 534 36,500 780 Climbing FlightAware
04:44AM -34.8210 152.9880 120° Southeast 465 535 36,900 240 Climbing FlightAware
04:45AM -34.8560 153.0660 119° Southeast 465 535 36,900  Level FlightAware
04:46AM -34.8910 153.1440 119° Southeast 465 535 36,900 2,460 Level FlightAware
04:46AM -34.9399 153.2398 119° Southeast 452 520 39,500  Climbing Aus ATC (RADAR)
04:46AM -34.9270 153.2220 119° Southeast 465 535 36,900 -180 Descending FlightAware
04:47AM -34.9917 153.3474 119° Southeast 452 520 39,400  Climbing Aus ATC (RADAR)
04:47AM -34.9620 153.3000 119° Southeast 465 535 36,900 -2,520 Descending FlightAware
04:48AM -35.0070 153.3980 119° Southeast 465 535 36,900 1,920 Level FlightAware
04:48AM -35.0838 153.5461 119° Southeast 447 514 39,400  Climbing Aus ATC (RADAR)
04:49AM -35.0420 153.4760 119° Southeast 465 535 36,900  Descending FlightAware
04:49AM -35.1204 153.6255 119° Southeast 447 514 39,400 2,760 Climbing Aus ATC (RADAR)
04:49AM -35.1340 153.6540 119° Southeast 460 529 39,000  Descending FlightAware
04:50AM -35.1763 153.7435 119° Southeast 443 510 39,400  Climbing Aus ATC (RADAR)
04:50AM -35.1780 153.7500 119° Southeast 458 527 39,000  Descending FlightAware
04:50AM -35.2127 153.8219 119° Southeast 442 509 39,400  Climbing Aus ATC (RADAR)
04:51AM -35.2150 153.8310 119° Southeast 457 526 39,000  Descending FlightAware
04:51AM -35.2716 153.9431 119° Southeast 439 505 39,400  Climbing Aus ATC (RADAR)
04:51AM -35.2500 153.9080 119° Southeast 457 526 39,000  Descending FlightAware
04:52AM -35.3046 154.0224 119° Southeast 437 503 39,400  Climbing Aus ATC (RADAR)
04:52AM -35.2850 153.9850 119° Southeast 457 526 39,000 -540 Descending FlightAware
04:53AM -35.3200 154.0620 119° Southeast 457 526 39,000 240 Level FlightAware
04:53AM -35.3941 154.2168 119° Southeast 436 502 39,400 420 Climbing Aus ATC (RADAR)
04:54AM -35.4100 154.2501 120° Southeast 437 503 39,400  Level Aus ATC (RADAR)
04:54AM -35.4458 154.3286 119° Southeast 436 502 39,400  Level Aus ATC (RADAR)
04:55AM -35.5009 154.4525 119° Southeast 435 501 39,400  Level Aus ATC (RADAR)
04:56AM -35.5384 154.5297 121° Southeast 435 501 39,400 -300 Level Aus ATC (RADAR)
04:57AM -35.5940 154.6478 120° Southeast 440 506 39,000 -360 Descending Aus ATC (RADAR)
04:57AM -35.6091 154.6813 119° Southeast 438 504 39,000  Level Aus ATC (RADAR)
04:57AM -35.6420 154.7582 118° Southeast 430 495 39,000 240 Level Aus ATC (RADAR)
04:58AM -35.7021 154.8717 123° Southeast 458 527 39,400 300 Climbing Aus ATC (RADAR)
04:59AM -35.7358 154.8923 154° Southeast 441 507 39,400  Level Aus ATC (RADAR)
04:59AM -35.7810 154.9635 128° Southeast 436 502 39,400  Level Aus ATC (RADAR)
04:59AM -35.8021 155.0053 122° Southeast 434 499 39,400  Level Aus ATC (RADAR)
05:04AM -36.1379 155.5990 125° Southeast 41,000  Climbing Aus ATC (Calculated)
05:06AM -36.2378 155.7776 125° Southeast  Level FlightAware Approximate
05:06AM -36.2917 155.8743 125° Southeast 41,000  Level Aus ATC (Calculated)
05:07AM -36.3065 155.9010 125° Southeast  Level FlightAware Approximate
05:07AM -36.3212 155.9273 125° Southeast 41,000  Level Aus ATC (Calculated)
05:07AM -36.3504 155.9800 125° Southeast 41,000  Level Aus ATC (Calculated)
05:09AM -36.4452 156.1512 125° Southeast  Level FlightAware Approximate
05:09AM -36.4662 156.1894 124° Southeast 41,000  Level Aus ATC (Calculated)
05:09AM -36.5221 156.2911 124° Southeast 41,000  Level Aus ATC (Calculated)
05:10AM -36.5771 156.3913 124° Southeast 41,000  Level Aus ATC (Calculated)
05:12AM -36.6939 156.6052 124° Southeast  Level FlightAware Approximate
05:13AM -36.7618 156.7301 124° Southeast  Level FlightAware Approximate
05:13AM -36.7928 156.7872 124° Southeast 41,000  Level Aus ATC (Calculated)
05:13AM -36.7928 156.7873 124° Southeast 41,000  Level Aus ATC (Calculated)
05:14AM -36.8295 156.8552 124° Southeast  Level FlightAware Approximate
05:15AM -36.9089 157.0023 124° Southeast  Level FlightAware Approximate
05:16AM -36.9764 157.1279 124° Southeast  Level FlightAware Approximate
05:17AM -37.0437 157.2538 124° Southeast  Level FlightAware Approximate
05:18AM -37.1109 157.3798 124° Southeast  Level FlightAware Approximate
05:19AM -37.1779 157.5061 124° Southeast  Level FlightAware Approximate
05:20AM -37.2449 157.6325 124° Southeast  Level FlightAware Approximate
05:20AM -37.2434 157.6298 124° Southeast 41,000  Level Aus ATC (Calculated)
05:22AM -37.3735 157.8770 124° Southeast  Level FlightAware Approximate
05:23AM -37.4400 158.0042 123° Southeast  Level FlightAware Approximate
05:24AM -37.5064 158.1315 123° Southeast  Level FlightAware Approximate
05:25AM -37.5727 158.2591 123° Southeast  Level FlightAware Approximate
05:26AM -37.6388 158.3870 123° Southeast  Level FlightAware Approximate
05:27AM -37.7048 158.5150 123° Southeast  Level FlightAware Approximate
05:28AM -37.7706 158.6433 123° Southeast  Level FlightAware Approximate
05:29AM -37.8363 158.7718 123° Southeast  Level FlightAware Approximate
05:30AM -37.9019 158.9005 123° Southeast  Level FlightAware Approximate
05:31AM -37.9673 159.0295 123° Southeast  Level FlightAware Approximate
05:32AM -38.0326 159.1587 123° Southeast  Level FlightAware Approximate
05:33AM -38.0977 159.2881 123° Southeast  Level FlightAware Approximate
05:34AM -38.1627 159.4177 123° Southeast  Level FlightAware Approximate
05:35AM -38.2276 159.5476 122° Southeast  Level FlightAware Approximate
05:36AM -38.2923 159.6777 122° Southeast  Level FlightAware Approximate
05:37AM -38.3568 159.8081 122° Southeast  Level FlightAware Approximate
05:38AM -38.4213 159.9386 122° Southeast  Level FlightAware Approximate
05:39AM -38.4855 160.0695 122° Southeast  Level FlightAware Approximate
05:40AM -38.5497 160.2005 122° Southeast  Level FlightAware Approximate
05:41AM -38.6137 160.3318 122° Southeast  Level FlightAware Approximate
05:42AM -38.6775 160.4633 122° Southeast  Level FlightAware Approximate
05:43AM -38.7412 160.5950 122° Southeast  Level FlightAware Approximate
05:43AM -38.7855 160.6871 122° Southeast 41,000  Level Aus ATC (Calculated)
05:44AM -38.8489 160.8192 122° Southeast  Level FlightAware Approximate
05:45AM -38.9221 160.9724 122° Southeast 41,000  Level Aus ATC (Calculated)
05:45AM -38.9122 160.9516 122° Southeast  Level FlightAware Approximate
05:46AM -38.9852 161.1050 122° Southeast  Level FlightAware Approximate
05:47AM -39.0482 161.2379 121° Southeast  Level FlightAware Approximate
05:48AM -39.1110 161.3710 121° Southeast  Level FlightAware Approximate
05:49AM -39.1737 161.5044 121° Southeast  Level FlightAware Approximate
05:50AM -39.2362 161.6380 121° Southeast  Level FlightAware Approximate
05:51AM -39.2985 161.7719 121° Southeast  Level FlightAware Approximate
05:52AM -39.3607 161.9059 121° Southeast  Level FlightAware Approximate
05:53AM -39.4228 162.0403 121° Southeast  Level FlightAware Approximate
05:54AM -39.4847 162.1748 121° Southeast  Level FlightAware Approximate
05:55AM -39.5464 162.3096 121° Southeast  Level FlightAware Approximate
05:55AM -39.5406 162.2969 121° Southeast 41,000  Level Aus ATC (Calculated)
05:55AM -39.5406 162.2969 121° Southeast 41,000  Level Aus ATC (Calculated)
05:56AM -39.6022 162.4319 121° Southeast  Level FlightAware Approximate
05:57AM -39.6637 162.5672 121° Southeast  Level FlightAware Approximate
05:58AM -39.7249 162.7027 120° Southeast  Level FlightAware Approximate
05:59AM -39.7861 162.8384 120° Southeast  Level FlightAware Approximate
06:00AM -39.8470 162.9744 120° Southeast  Level FlightAware Approximate
06:01AM -39.9079 163.1106 120° Southeast  Level FlightAware Approximate
06:02AM -39.8470 162.9744 300° West  Level FlightAware Approximate
06:03AM -39.9079 163.1106 120° Southeast  Level FlightAware Approximate
06:04AM -39.8470 162.9744 300° West  Level FlightAware Approximate
06:05AM -39.9079 163.1106 120° Southeast  Level FlightAware Approximate
06:06AM -39.9141 163.1244 120° Southeast  Level FlightAware Approximate
06:07AM -39.9749 163.2608 120° Southeast  Level FlightAware Approximate
06:08AM -40.0354 163.3974 120° Southeast  Level FlightAware Approximate
06:09AM -40.0959 163.5343 120° Southeast  Level FlightAware Approximate
06:10AM -40.1561 163.6714 120° Southeast  Level FlightAware Approximate
06:11AM -40.2162 163.8088 120° Southeast  Level FlightAware Approximate
06:12AM -40.5678 164.6237 121° Southeast  Level FlightAware Approximate
06:13AM -40.6267 164.7628 119° Southeast  Level FlightAware Approximate
06:14AM -40.6855 164.9021 119° Southeast  Level FlightAware Approximate
06:15AM -40.7441 165.0417 119° Southeast  Level FlightAware Approximate
06:16AM -40.8026 165.1815 119° Southeast  Level FlightAware Approximate
06:17AM -40.8609 165.3215 119° Southeast  Level FlightAware Approximate
06:18AM -40.9190 165.4618 119° Southeast  Level FlightAware Approximate
06:19AM -40.9769 165.6024 119° Southeast  Level FlightAware Approximate
06:20AM -41.0347 165.7431 119° Southeast  Level FlightAware Approximate
06:21AM -41.0923 165.8842 118° Southeast  Level FlightAware Approximate
06:22AM -41.1497 166.0255 118° Southeast  Level FlightAware Approximate
06:23AM -41.2070 166.1670 118° Southeast  Level FlightAware Approximate
06:24AM -41.2640 166.3088 118° Southeast  Level FlightAware Approximate
06:25AM -41.3209 166.4508 118° Southeast  Level FlightAware Approximate
06:26AM -41.3777 166.5931 118° Southeast  Level FlightAware Approximate
06:27AM -41.4342 166.7356 118° Southeast  Level FlightAware Approximate
06:28AM -41.4906 166.8784 118° Southeast  Level FlightAware Approximate
06:29AM -41.5468 167.0214 118° Southeast  Level FlightAware Approximate
06:30AM -41.6028 167.1647 118° Southeast  Level FlightAware Approximate
06:31AM -41.6587 167.3082 118° Southeast  Level FlightAware Approximate
06:32AM -41.7143 167.4519 117° Southeast  Level FlightAware Approximate
06:33AM -41.7698 167.5959 117° Southeast  Level FlightAware Approximate
06:34AM -41.8246 167.7405 116° Southeast  Level Estimated
06:35AM -41.8798 167.8850 117° Southeast  Level FlightAware Approximate
06:36AM -41.9347 168.0298 117° Southeast  Level FlightAware Approximate
06:37AM -41.9895 168.1748 117° Southeast  Level FlightAware Approximate
06:38AM -42.0441 168.3200 117° Southeast  Level FlightAware Approximate
06:39AM -42.0985 168.4655 117° Southeast  Level FlightAware Approximate
06:40AM -42.1527 168.6113 117° Southeast  Level FlightAware Approximate
06:41AM -42.2067 168.7573 117° Southeast  Level FlightAware Approximate
06:42AM -42.2606 168.9035 116° Southeast  Level FlightAware Approximate
06:42AM -42.3090 169.0340 116° Southeast 450 518 41,000  Level FlightAware
06:43AM -42.3143 169.0500 116° Southeast  Level FlightAware Approximate
06:43AM -42.3500 169.1470 116° Southeast 450 518 41,000  Level FlightAware
06:44AM -42.3880 169.2500 117° Southeast 453 521 41,000  Level FlightAware
06:44AM -42.4280 169.3650 115° Southeast 454 522 41,000  Level FlightAware
06:45AM -42.4570 169.4730 110° East 452 520 41,000  Level FlightAware
06:46AM -42.4870 169.5810 111° Southeast 452 520 41,000  Level FlightAware
06:47AM -42.5300 169.7410 110° East 453 521 41,000  Level FlightAware
06:47AM -42.5570 169.8380 111° Southeast 455 524 41,000  Level FlightAware
06:48AM -42.5880 169.9560 110° East 458 527 41,000  Level FlightAware
06:49AM -42.6140 170.0530 110° East 460 529 41,000  Level FlightAware
06:49AM -42.6500 170.1880 110° East 465 535 41,000  Level FlightAware
06:50AM -42.6790 170.2970 110° East 463 533 41,000 -600 Level FlightAware
06:51AM -42.7120 170.4210 110° East 455 524 40,200 -2,160 Descending FlightAware
06:52AM -42.7800 170.6820 110° East 449 517 35,900 -2,820 Descending FlightAware
06:54AM -42.8250 170.8540 110° East 421 484 32,600 -3,240 Descending FlightAware
06:54AM -42.8600 170.9850 110° East 418 481 29,500 -2,820 Descending FlightAware
06:56AM -42.9200 171.2080 110° East 408 470 25,900 -1,800 Descending FlightAware
06:57AM -42.9720 171.3980 111° Southeast 398 458 24,500 -1,320 Descending FlightAware
06:58AM -43.0100 171.5380 110° East 383 441 22,900 -2,100 Descending FlightAware
07:00AM -43.0570 171.7130 110° East 355 409 19,600 -2,520 Descending FlightAware
07:00AM -43.0820 171.8090 110° East 348 400 17,700 -2,400 Descending FlightAware
07:01AM -43.1040 171.8900 110° East 349 402 16,200 -2,520 Descending FlightAware
07:02AM -43.1300 171.9880 110° East 364 419 14,200 -2,700 Descending FlightAware
07:02AM -43.1530 172.0760 110° East 370 426 12,400 -2,820 Descending FlightAware
07:03AM -43.1770 172.1650 110° East 358 412 10,500 -2,760 Descending FlightAware
07:04AM -43.1930 172.2270 110° East 349 402 9,200 -2,640 Descending FlightAware
07:04AM -43.2090 172.2900 109° East 342 394 7,900 -2,520 Descending FlightAware
07:05AM -43.2220 172.3410 109° East 336 387 6,900 -2,340 Descending FlightAware
07:05AM -43.2380 172.4000 110° East 325 374 5,800 -1,740 Descending FlightAware
07:05AM -43.2450 172.4280 109° East 312 359 5,600 -1,080 Descending FlightAware
07:06AM -43.2570 172.4750 109° East 299 344 5,100 -1,020 Descending FlightAware
07:06AM -43.2710 172.5260 111° Southeast 267 307 4,700 -660 Descending FlightAware
07:07AM -43.2810 172.5640 110° East 242 278 4,500 -360 Descending FlightAware
07:07AM -43.2920 172.6070 109° East 224 258 4,400 -480 Descending FlightAware
07:08AM -43.2990 172.6390 107° East 205 236 4,100 -600 Descending FlightAware
07:08AM -43.3040 172.6570 111° Southeast 193 222 4,000 -540 Descending FlightAware
07:08AM -43.3130 172.6890 111° Southeast 169 194 3,700 -720 Descending FlightAware
07:09AM -43.3220 172.6990 141° Southeast 167 192 3,500 -840 Descending FlightAware
07:09AM -43.3330 172.7030 165° South 161 185 3,300 -720 Descending FlightAware
07:09AM -43.3400 172.7000 197° South 159 183 3,200 -900 Descending FlightAware
07:09AM -43.3580 172.6830 214° Southwest 165 190 2,700 -900 Descending FlightAware
07:10AM -43.3760 172.6620 220° Southwest 158 182 2,300 -900 Descending FlightAware
07:10AM -43.3900 172.6460 220° Southwest 150 173 1,900 -840 Descending FlightAware
07:11AM -43.4030 172.6310 220° Southwest 135 155 1,600 -720 Descending FlightAware
07:11AM -43.4130 172.6200 219° Southwest 132 152 1,400 -720 Descending FlightAware
07:12AM -43.4240 172.6070 221° Southwest 127 146 1,100 -780 Descending FlightAware
07:12AM -43.4380 172.5910 220° Southwest 124 143 700 -660 Descending FlightAware
07:12AM -43.4490 172.5780 221° Southwest 115 132 500 -600 Descending FlightAware
07:13AM -43.4600 172.5660 218° Southwest 114 131 200 -720 Descending FlightAware
07:13AM -43.4730 172.5510 220° Southwest 127 146 -420 Descending FlightAware
07:14AM -43.4830 172.5390 221° Southwest 90 104  Level FlightAware
07:14AM -43.4870 172.5340 222° Southwest 23 26  Level FlightAware
07:15AM -43.4880 172.5340 180° South 10 12  Level FlightAware
07:15AM -43.4890 172.5350 144° Southeast 10 12  Level FlightAware
07:15AM -43.4890 172.5360 90° East 10 12  Level FlightAware
07:15AM -43.4880 172.5360 360° North 12 14  Level FlightAware
07:16AM -43.4870 172.5380 55° Northeast 17 20  Level FlightAware
07:18AM -43.4875 172.5339 40° Northeast  Level FlightAware Approximate
07:19AM -43.4894 172.5322 40° Northeast  Level Estimated
07:20AM -43.4875 172.5339 40° Northeast  Level FlightAware Approximate
07:21AM -43.4894 172.5322 40° Northeast  Level Estimated
07:22AM -43.4875 172.5339 40° Northeast  Level FlightAware Approximate